sensor_id;sensor_type;location;lat;lon;timestamp;P1;durP1;ratioP1;P2;durP2;ratioP2
26953;SDS011;14508;50.924;11.600;2022-08-02T00:00:48;5.07;;;3.50;;
26953;SDS011;14508;50.924;11.600;2022-08-02T00:03:15;5.70;;;3.47;;
26953;SDS011;14508;50.924;11.600;2022-08-02T00:05:42;5.68;;;3.60;;
26953;SDS011;14508;50.924;11.600;2022-08-02T00:08:08;5.53;;;3.70;;
26953;SDS011;14508;50.924;11.600;2022-08-02T00:10:36;4.95;;;4.07;;
26953;SDS011;14508;50.924;11.600;2022-08-02T00:13:03;5.63;;;3.60;;
26953;SDS011;14508;50.924;11.600;2022-08-02T00:15:30;4.63;;;3.03;;
26953;SDS011;14508;50.924;11.600;2022-08-02T00:17:56;4.63;;;3.70;;
26953;SDS011;14508;50.924;11.600;2022-08-02T00:20:23;6.40;;;3.20;;
26953;SDS011;14508;50.924;11.600;2022-08-02T00:22:50;9.45;;;3.85;;
26953;SDS011;14508;50.924;11.600;2022-08-02T00:25:16;7.25;;;3.80;;
26953;SDS011;14508;50.924;11.600;2022-08-02T00:27:44;9.52;;;3.47;;
26953;SDS011;14508;50.924;11.600;2022-08-02T00:30:11;3.00;;;2.70;;
26953;SDS011;14508;50.924;11.600;2022-08-02T00:32:38;4.15;;;3.75;;
26953;SDS011;14508;50.924;11.600;2022-08-02T00:35:05;3.63;;;3.20;;
26953;SDS011;14508;50.924;11.600;2022-08-02T00:37:36;6.45;;;2.92;;
26953;SDS011;14508;50.924;11.600;2022-08-02T00:40:04;5.95;;;3.35;;
26953;SDS011;14508;50.924;11.600;2022-08-02T00:42:31;6.63;;;3.00;;
26953;SDS011;14508;50.924;11.600;2022-08-02T00:44:59;5.30;;;4.40;;
26953;SDS011;14508;50.924;11.600;2022-08-02T00:47:26;6.40;;;4.13;;
26953;SDS011;14508;50.924;11.600;2022-08-02T00:49:53;5.60;;;3.40;;
26953;SDS011;14508;50.924;11.600;2022-08-02T00:52:19;5.25;;;3.60;;
26953;SDS011;14508;50.924;11.600;2022-08-02T00:54:47;10.07;;;4.13;;
26953;SDS011;14508;50.924;11.600;2022-08-02T00:57:14;5.68;;;3.60;;
26953;SDS011;14508;50.924;11.600;2022-08-02T00:59:41;5.57;;;4.38;;
26953;SDS011;14508;50.924;11.600;2022-08-02T01:02:09;4.78;;;4.25;;
26953;SDS011;14508;50.924;11.600;2022-08-02T01:04:35;9.02;;;4.30;;
26953;SDS011;14508;50.924;11.600;2022-08-02T01:07:02;6.05;;;4.10;;
26953;SDS011;14508;50.924;11.600;2022-08-02T01:09:30;4.45;;;3.70;;
26953;SDS011;14508;50.924;11.600;2022-08-02T01:11:56;6.63;;;4.15;;
26953;SDS011;14508;50.924;11.600;2022-08-02T01:14:23;5.88;;;4.07;;
26953;SDS011;14508;50.924;11.600;2022-08-02T01:16:51;5.80;;;3.95;;
26953;SDS011;14508;50.924;11.600;2022-08-02T01:19:31;4.78;;;3.72;;
26953;SDS011;14508;50.924;11.600;2022-08-02T01:22:15;4.78;;;3.63;;
26953;SDS011;14508;50.924;11.600;2022-08-02T01:25:03;5.20;;;3.38;;
26953;SDS011;14508;50.924;11.600;2022-08-02T01:27:42;4.00;;;3.60;;
26953;SDS011;14508;50.924;11.600;2022-08-02T01:30:18;4.78;;;3.42;;
26953;SDS011;14508;50.924;11.600;2022-08-02T01:32:47;5.90;;;3.72;;
26953;SDS011;14508;50.924;11.600;2022-08-02T01:35:19;4.97;;;3.83;;
26953;SDS011;14508;50.924;11.600;2022-08-02T01:37:50;9.07;;;3.97;;
26953;SDS011;14508;50.924;11.600;2022-08-02T01:40:22;4.93;;;3.88;;
26953;SDS011;14508;50.924;11.600;2022-08-02T01:42:54;5.38;;;3.88;;
26953;SDS011;14508;50.924;11.600;2022-08-02T01:45:24;8.45;;;4.18;;
26953;SDS011;14508;50.924;11.600;2022-08-02T01:47:54;6.43;;;4.85;;
26953;SDS011;14508;50.924;11.600;2022-08-02T01:50:22;4.90;;;3.63;;
26953;SDS011;14508;50.924;11.600;2022-08-02T01:52:53;8.82;;;4.18;;
26953;SDS011;14508;50.924;11.600;2022-08-02T01:55:24;4.30;;;3.90;;
26953;SDS011;14508;50.924;11.600;2022-08-02T01:57:56;5.28;;;3.80;;
26953;SDS011;14508;50.924;11.600;2022-08-02T02:00:26;7.20;;;4.20;;
26953;SDS011;14508;50.924;11.600;2022-08-02T02:02:56;9.10;;;3.83;;
26953;SDS011;14508;50.924;11.600;2022-08-02T02:05:26;4.35;;;3.90;;
26953;SDS011;14508;50.924;11.600;2022-08-02T02:07:56;13.75;;;4.32;;
26953;SDS011;14508;50.924;11.600;2022-08-02T02:10:25;6.80;;;3.40;;
26953;SDS011;14508;50.924;11.600;2022-08-02T02:12:54;7.13;;;4.03;;
26953;SDS011;14508;50.924;11.600;2022-08-02T02:15:23;5.38;;;4.28;;
26953;SDS011;14508;50.924;11.600;2022-08-02T02:17:52;4.57;;;3.60;;
26953;SDS011;14508;50.924;11.600;2022-08-02T02:20:21;5.82;;;4.00;;
26953;SDS011;14508;50.924;11.600;2022-08-02T02:22:48;5.90;;;4.32;;
26953;SDS011;14508;50.924;11.600;2022-08-02T02:25:15;4.50;;;4.00;;
26953;SDS011;14508;50.924;11.600;2022-08-02T02:27:45;7.13;;;4.25;;
26953;SDS011;14508;50.924;11.600;2022-08-02T02:30:17;6.82;;;4.57;;
26953;SDS011;14508;50.924;11.600;2022-08-02T02:32:45;10.07;;;3.95;;
26953;SDS011;14508;50.924;11.600;2022-08-02T02:35:16;4.50;;;4.10;;
26953;SDS011;14508;50.924;11.600;2022-08-02T02:37:44;5.72;;;4.35;;
26953;SDS011;14508;50.924;11.600;2022-08-02T02:40:14;5.20;;;4.10;;
26953;SDS011;14508;50.924;11.600;2022-08-02T02:42:42;5.63;;;4.38;;
26953;SDS011;14508;50.924;11.600;2022-08-02T02:45:09;7.03;;;4.30;;
26953;SDS011;14508;50.924;11.600;2022-08-02T02:47:37;6.88;;;4.10;;
26953;SDS011;14508;50.924;11.600;2022-08-02T02:50:06;6.60;;;3.88;;
26953;SDS011;14508;50.924;11.600;2022-08-02T02:52:35;6.80;;;4.03;;
26953;SDS011;14508;50.924;11.600;2022-08-02T02:55:03;5.03;;;4.20;;
26953;SDS011;14508;50.924;11.600;2022-08-02T02:57:31;9.02;;;4.43;;
26953;SDS011;14508;50.924;11.600;2022-08-02T02:59:59;6.00;;;4.35;;
26953;SDS011;14508;50.924;11.600;2022-08-02T03:02:26;6.50;;;4.70;;
26953;SDS011;14508;50.924;11.600;2022-08-02T03:04:53;6.68;;;4.03;;
26953;SDS011;14508;50.924;11.600;2022-08-02T03:07:22;5.90;;;4.47;;
26953;SDS011;14508;50.924;11.600;2022-08-02T03:09:49;5.53;;;4.40;;
26953;SDS011;14508;50.924;11.600;2022-08-02T03:12:15;5.65;;;4.43;;
26953;SDS011;14508;50.924;11.600;2022-08-02T03:14:42;4.93;;;4.30;;
26953;SDS011;14508;50.924;11.600;2022-08-02T03:17:09;6.07;;;4.63;;
26953;SDS011;14508;50.924;11.600;2022-08-02T03:19:36;6.45;;;4.15;;
26953;SDS011;14508;50.924;11.600;2022-08-02T03:22:02;5.80;;;4.13;;
26953;SDS011;14508;50.924;11.600;2022-08-02T03:24:30;6.05;;;4.18;;
26953;SDS011;14508;50.924;11.600;2022-08-02T03:26:57;4.75;;;3.92;;
26953;SDS011;14508;50.924;11.600;2022-08-02T03:29:24;10.02;;;4.30;;
26953;SDS011;14508;50.924;11.600;2022-08-02T03:31:50;6.43;;;4.05;;
26953;SDS011;14508;50.924;11.600;2022-08-02T03:34:18;11.88;;;5.68;;
26953;SDS011;14508;50.924;11.600;2022-08-02T03:36:46;4.78;;;4.18;;
26953;SDS011;14508;50.924;11.600;2022-08-02T03:39:16;5.93;;;4.38;;
26953;SDS011;14508;50.924;11.600;2022-08-02T03:41:46;5.55;;;4.25;;
26953;SDS011;14508;50.924;11.600;2022-08-02T03:44:14;5.38;;;4.47;;
26953;SDS011;14508;50.924;11.600;2022-08-02T03:46:42;7.10;;;4.72;;
26953;SDS011;14508;50.924;11.600;2022-08-02T03:49:10;10.15;;;4.68;;
26953;SDS011;14508;50.924;11.600;2022-08-02T03:51:40;5.97;;;4.25;;
26953;SDS011;14508;50.924;11.600;2022-08-02T03:54:07;5.72;;;3.97;;
26953;SDS011;14508;50.924;11.600;2022-08-02T03:56:34;7.22;;;3.88;;
26953;SDS011;14508;50.924;11.600;2022-08-02T03:59:06;5.40;;;4.50;;
26953;SDS011;14508;50.924;11.600;2022-08-02T04:01:34;6.75;;;4.22;;
26953;SDS011;14508;50.924;11.600;2022-08-02T04:04:01;7.80;;;4.50;;
26953;SDS011;14508;50.924;11.600;2022-08-02T04:06:27;12.68;;;5.35;;
26953;SDS011;14508;50.924;11.600;2022-08-02T04:08:54;7.38;;;4.63;;
26953;SDS011;14508;50.924;11.600;2022-08-02T04:11:21;6.57;;;4.82;;
26953;SDS011;14508;50.924;11.600;2022-08-02T04:13:55;5.95;;;4.88;;
26953;SDS011;14508;50.924;11.600;2022-08-02T04:16:38;7.07;;;4.55;;
26953;SDS011;14508;50.924;11.600;2022-08-02T04:19:07;5.72;;;4.35;;
26953;SDS011;14508;50.924;11.600;2022-08-02T04:21:39;9.18;;;4.60;;
26953;SDS011;14508;50.924;11.600;2022-08-02T04:24:07;8.50;;;5.00;;
26953;SDS011;14508;50.924;11.600;2022-08-02T04:26:36;6.95;;;4.88;;
26953;SDS011;14508;50.924;11.600;2022-08-02T04:29:04;7.13;;;4.93;;
26953;SDS011;14508;50.924;11.600;2022-08-02T04:31:32;5.65;;;4.30;;
26953;SDS011;14508;50.924;11.600;2022-08-02T04:34:00;6.70;;;4.90;;
26953;SDS011;14508;50.924;11.600;2022-08-02T04:36:27;9.32;;;5.40;;
26953;SDS011;14508;50.924;11.600;2022-08-02T04:38:54;5.70;;;4.47;;
26953;SDS011;14508;50.924;11.600;2022-08-02T04:41:20;5.95;;;4.25;;
26953;SDS011;14508;50.924;11.600;2022-08-02T04:43:47;6.40;;;4.60;;
26953;SDS011;14508;50.924;11.600;2022-08-02T04:46:14;10.25;;;5.43;;
26953;SDS011;14508;50.924;11.600;2022-08-02T04:48:42;6.10;;;4.65;;
26953;SDS011;14508;50.924;11.600;2022-08-02T04:51:09;8.23;;;4.85;;
26953;SDS011;14508;50.924;11.600;2022-08-02T04:53:35;6.65;;;4.65;;
26953;SDS011;14508;50.924;11.600;2022-08-02T04:56:02;8.70;;;4.45;;
26953;SDS011;14508;50.924;11.600;2022-08-02T04:58:29;6.82;;;4.97;;
26953;SDS011;14508;50.924;11.600;2022-08-02T05:00:56;9.95;;;5.60;;
26953;SDS011;14508;50.924;11.600;2022-08-02T05:03:22;9.50;;;5.05;;
26953;SDS011;14508;50.924;11.600;2022-08-02T05:05:50;9.27;;;5.10;;
26953;SDS011;14508;50.924;11.600;2022-08-02T05:08:17;6.28;;;4.82;;
26953;SDS011;14508;50.924;11.600;2022-08-02T05:10:43;6.90;;;5.03;;
26953;SDS011;14508;50.924;11.600;2022-08-02T05:13:10;9.50;;;5.53;;
26953;SDS011;14508;50.924;11.600;2022-08-02T05:15:37;7.60;;;5.38;;
26953;SDS011;14508;50.924;11.600;2022-08-02T05:18:03;11.15;;;5.25;;
26953;SDS011;14508;50.924;11.600;2022-08-02T05:20:30;12.93;;;6.30;;
26953;SDS011;14508;50.924;11.600;2022-08-02T05:22:58;8.68;;;5.50;;
26953;SDS011;14508;50.924;11.600;2022-08-02T05:25:25;8.52;;;6.03;;
26953;SDS011;14508;50.924;11.600;2022-08-02T05:27:52;10.85;;;5.95;;
26953;SDS011;14508;50.924;11.600;2022-08-02T05:30:18;7.93;;;5.25;;
26953;SDS011;14508;50.924;11.600;2022-08-02T05:32:45;12.90;;;7.03;;
26953;SDS011;14508;50.924;11.600;2022-08-02T05:35:16;8.25;;;5.30;;
26953;SDS011;14508;50.924;11.600;2022-08-02T05:37:43;8.35;;;5.95;;
26953;SDS011;14508;50.924;11.600;2022-08-02T05:40:11;10.40;;;5.78;;
26953;SDS011;14508;50.924;11.600;2022-08-02T05:42:38;9.10;;;6.45;;
26953;SDS011;14508;50.924;11.600;2022-08-02T05:45:05;7.38;;;5.45;;
26953;SDS011;14508;50.924;11.600;2022-08-02T05:47:32;9.13;;;5.80;;
26953;SDS011;14508;50.924;11.600;2022-08-02T05:50:00;16.48;;;5.95;;
26953;SDS011;14508;50.924;11.600;2022-08-02T05:52:29;15.57;;;5.70;;
26953;SDS011;14508;50.924;11.600;2022-08-02T05:55:03;12.80;;;5.50;;
26953;SDS011;14508;50.924;11.600;2022-08-02T05:57:36;8.98;;;4.88;;
26953;SDS011;14508;50.924;11.600;2022-08-02T06:00:08;9.45;;;5.03;;
26953;SDS011;14508;50.924;11.600;2022-08-02T06:02:49;7.50;;;5.05;;
26953;SDS011;14508;50.924;11.600;2022-08-02T06:05:28;16.08;;;5.03;;
26953;SDS011;14508;50.924;11.600;2022-08-02T06:07:58;9.30;;;4.55;;
26953;SDS011;14508;50.924;11.600;2022-08-02T06:10:25;12.98;;;4.40;;
26953;SDS011;14508;50.924;11.600;2022-08-02T06:12:55;10.88;;;4.60;;
26953;SDS011;14508;50.924;11.600;2022-08-02T06:15:32;12.00;;;4.78;;
26953;SDS011;14508;50.924;11.600;2022-08-02T06:17:59;7.22;;;4.07;;
26953;SDS011;14508;50.924;11.600;2022-08-02T06:20:27;10.98;;;4.10;;
26953;SDS011;14508;50.924;11.600;2022-08-02T06:22:59;6.97;;;4.40;;
26953;SDS011;14508;50.924;11.600;2022-08-02T06:25:27;7.10;;;4.05;;
26953;SDS011;14508;50.924;11.600;2022-08-02T06:27:56;14.57;;;4.60;;
26953;SDS011;14508;50.924;11.600;2022-08-02T06:30:24;14.48;;;4.43;;
26953;SDS011;14508;50.924;11.600;2022-08-02T06:32:51;9.90;;;4.30;;
26953;SDS011;14508;50.924;11.600;2022-08-02T06:35:18;9.13;;;4.03;;
26953;SDS011;14508;50.924;11.600;2022-08-02T06:37:47;9.30;;;4.10;;
26953;SDS011;14508;50.924;11.600;2022-08-02T06:40:17;9.05;;;4.43;;
26953;SDS011;14508;50.924;11.600;2022-08-02T06:42:51;7.20;;;4.50;;
26953;SDS011;14508;50.924;11.600;2022-08-02T06:45:30;12.15;;;4.20;;
26953;SDS011;14508;50.924;11.600;2022-08-02T06:47:57;8.88;;;3.95;;
26953;SDS011;14508;50.924;11.600;2022-08-02T06:50:24;8.57;;;3.53;;
26953;SDS011;14508;50.924;11.600;2022-08-02T06:52:51;8.48;;;3.60;;
26953;SDS011;14508;50.924;11.600;2022-08-02T06:55:18;10.98;;;3.65;;
26953;SDS011;14508;50.924;11.600;2022-08-02T06:57:44;9.20;;;4.30;;
26953;SDS011;14508;50.924;11.600;2022-08-02T07:00:13;7.38;;;3.50;;
26953;SDS011;14508;50.924;11.600;2022-08-02T07:02:40;7.20;;;3.40;;
26953;SDS011;14508;50.924;11.600;2022-08-02T07:05:07;10.13;;;3.75;;
26953;SDS011;14508;50.924;11.600;2022-08-02T07:07:34;21.63;;;4.18;;
26953;SDS011;14508;50.924;11.600;2022-08-02T07:10:01;10.43;;;3.40;;
26953;SDS011;14508;50.924;11.600;2022-08-02T07:12:29;10.35;;;3.92;;
26953;SDS011;14508;50.924;11.600;2022-08-02T07:14:56;6.90;;;3.28;;
26953;SDS011;14508;50.924;11.600;2022-08-02T07:17:24;6.97;;;3.17;;
26953;SDS011;14508;50.924;11.600;2022-08-02T07:19:51;7.97;;;3.03;;
26953;SDS011;14508;50.924;11.600;2022-08-02T07:22:18;12.32;;;4.05;;
26953;SDS011;14508;50.924;11.600;2022-08-02T07:24:47;8.27;;;3.25;;
26953;SDS011;14508;50.924;11.600;2022-08-02T07:27:14;7.85;;;3.33;;
26953;SDS011;14508;50.924;11.600;2022-08-02T07:29:40;11.23;;;3.03;;
26953;SDS011;14508;50.924;11.600;2022-08-02T07:32:07;9.05;;;3.22;;
26953;SDS011;14508;50.924;11.600;2022-08-02T07:34:35;5.60;;;2.72;;
26953;SDS011;14508;50.924;11.600;2022-08-02T07:37:02;9.20;;;2.78;;
26953;SDS011;14508;50.924;11.600;2022-08-02T07:39:28;6.13;;;2.83;;
26953;SDS011;14508;50.924;11.600;2022-08-02T07:41:55;9.32;;;2.83;;
26953;SDS011;14508;50.924;11.600;2022-08-02T07:44:22;6.63;;;3.13;;
26953;SDS011;14508;50.924;11.600;2022-08-02T07:46:49;6.25;;;2.85;;
26953;SDS011;14508;50.924;11.600;2022-08-02T07:49:15;6.60;;;2.38;;
26953;SDS011;14508;50.924;11.600;2022-08-02T07:51:44;10.93;;;2.60;;
26953;SDS011;14508;50.924;11.600;2022-08-02T07:54:11;7.60;;;2.22;;
26953;SDS011;14508;50.924;11.600;2022-08-02T07:56:38;7.82;;;2.72;;
26953;SDS011;14508;50.924;11.600;2022-08-02T07:59:05;12.00;;;3.33;;
26953;SDS011;14508;50.924;11.600;2022-08-02T08:01:31;7.30;;;2.67;;
26953;SDS011;14508;50.924;11.600;2022-08-02T08:03:58;8.77;;;2.40;;
26953;SDS011;14508;50.924;11.600;2022-08-02T08:06:25;17.83;;;3.65;;
26953;SDS011;14508;50.924;11.600;2022-08-02T08:08:53;13.85;;;3.67;;
26953;SDS011;14508;50.924;11.600;2022-08-02T08:11:19;9.77;;;2.80;;
26953;SDS011;14508;50.924;11.600;2022-08-02T08:13:46;5.03;;;2.65;;
26953;SDS011;14508;50.924;11.600;2022-08-02T08:16:13;13.32;;;3.15;;
26953;SDS011;14508;50.924;11.600;2022-08-02T08:18:39;9.35;;;2.63;;
26953;SDS011;14508;50.924;11.600;2022-08-02T08:21:06;9.50;;;2.50;;
26953;SDS011;14508;50.924;11.600;2022-08-02T08:23:34;9.40;;;2.75;;
26953;SDS011;14508;50.924;11.600;2022-08-02T08:26:02;5.95;;;2.42;;
26953;SDS011;14508;50.924;11.600;2022-08-02T08:28:29;10.52;;;2.75;;
26953;SDS011;14508;50.924;11.600;2022-08-02T08:30:56;13.80;;;3.15;;
26953;SDS011;14508;50.924;11.600;2022-08-02T08:33:22;10.95;;;2.78;;
26953;SDS011;14508;50.924;11.600;2022-08-02T08:35:49;8.10;;;2.90;;
26953;SDS011;14508;50.924;11.600;2022-08-02T08:38:16;7.80;;;2.38;;
26953;SDS011;14508;50.924;11.600;2022-08-02T08:40:42;6.13;;;3.20;;
26953;SDS011;14508;50.924;11.600;2022-08-02T08:43:12;10.13;;;2.65;;
26953;SDS011;14508;50.924;11.600;2022-08-02T08:45:38;11.95;;;3.10;;
26953;SDS011;14508;50.924;11.600;2022-08-02T08:48:06;5.60;;;2.92;;
26953;SDS011;14508;50.924;11.600;2022-08-02T08:50:36;7.68;;;2.40;;
26953;SDS011;14508;50.924;11.600;2022-08-02T08:53:08;7.72;;;2.40;;
26953;SDS011;14508;50.924;11.600;2022-08-02T08:55:35;6.05;;;2.75;;
26953;SDS011;14508;50.924;11.600;2022-08-02T08:58:03;10.38;;;3.10;;
26953;SDS011;14508;50.924;11.600;2022-08-02T09:00:32;6.47;;;2.40;;
26953;SDS011;14508;50.924;11.600;2022-08-02T09:03:01;7.35;;;2.92;;
26953;SDS011;14508;50.924;11.600;2022-08-02T09:05:28;8.32;;;2.65;;
26953;SDS011;14508;50.924;11.600;2022-08-02T09:07:55;5.90;;;2.70;;
26953;SDS011;14508;50.924;11.600;2022-08-02T09:10:34;7.43;;;2.75;;
26953;SDS011;14508;50.924;11.600;2022-08-02T09:13:08;5.10;;;2.72;;
26953;SDS011;14508;50.924;11.600;2022-08-02T09:15:39;7.05;;;2.20;;
26953;SDS011;14508;50.924;11.600;2022-08-02T09:18:07;11.48;;;2.60;;
26953;SDS011;14508;50.924;11.600;2022-08-02T09:20:34;5.15;;;2.17;;
26953;SDS011;14508;50.924;11.600;2022-08-02T09:23:21;7.75;;;2.40;;
26953;SDS011;14508;50.924;11.600;2022-08-02T09:25:55;7.18;;;2.30;;
26953;SDS011;14508;50.924;11.600;2022-08-02T09:28:26;5.28;;;2.45;;
26953;SDS011;14508;50.924;11.600;2022-08-02T09:31:02;10.20;;;2.83;;
26953;SDS011;14508;50.924;11.600;2022-08-02T09:33:30;5.63;;;2.90;;
26953;SDS011;14508;50.924;11.600;2022-08-02T09:35:58;4.28;;;2.40;;
26953;SDS011;14508;50.924;11.600;2022-08-02T09:38:26;4.25;;;2.58;;
26953;SDS011;14508;50.924;11.600;2022-08-02T09:40:53;5.80;;;2.20;;
26953;SDS011;14508;50.924;11.600;2022-08-02T09:43:20;10.93;;;2.70;;
26953;SDS011;14508;50.924;11.600;2022-08-02T09:46:00;3.92;;;2.03;;
26953;SDS011;14508;50.924;11.600;2022-08-02T09:48:41;8.68;;;2.80;;
26953;SDS011;14508;50.924;11.600;2022-08-02T09:51:19;6.88;;;2.50;;
26953;SDS011;14508;50.924;11.600;2022-08-02T09:53:47;3.63;;;2.50;;
26953;SDS011;14508;50.924;11.600;2022-08-02T09:56:16;7.18;;;2.17;;
26953;SDS011;14508;50.924;11.600;2022-08-02T09:58:43;6.80;;;2.65;;
26953;SDS011;14508;50.924;11.600;2022-08-02T10:01:12;4.97;;;2.42;;
26953;SDS011;14508;50.924;11.600;2022-08-02T10:03:55;5.93;;;2.50;;
26953;SDS011;14508;50.924;11.600;2022-08-02T10:06:22;12.50;;;2.70;;
26953;SDS011;14508;50.924;11.600;2022-08-02T10:08:49;6.13;;;2.28;;
26953;SDS011;14508;50.924;11.600;2022-08-02T10:11:17;5.40;;;2.28;;
26953;SDS011;14508;50.924;11.600;2022-08-02T10:13:45;4.78;;;2.53;;
26953;SDS011;14508;50.924;11.600;2022-08-02T10:16:14;5.82;;;2.67;;
26953;SDS011;14508;50.924;11.600;2022-08-02T10:18:43;4.03;;;2.05;;
26953;SDS011;14508;50.924;11.600;2022-08-02T10:21:11;7.78;;;2.45;;
26953;SDS011;14508;50.924;11.600;2022-08-02T10:23:40;2.90;;;2.25;;
26953;SDS011;14508;50.924;11.600;2022-08-02T10:26:09;5.68;;;2.47;;
26953;SDS011;14508;50.924;11.600;2022-08-02T10:28:40;4.75;;;2.30;;
26953;SDS011;14508;50.924;11.600;2022-08-02T10:31:10;6.43;;;2.22;;
26953;SDS011;14508;50.924;11.600;2022-08-02T10:33:40;3.95;;;2.30;;
26953;SDS011;14508;50.924;11.600;2022-08-02T10:36:09;6.80;;;2.33;;
26953;SDS011;14508;50.924;11.600;2022-08-02T10:38:38;3.47;;;2.40;;
26953;SDS011;14508;50.924;11.600;2022-08-02T10:41:05;3.40;;;2.03;;
26953;SDS011;14508;50.924;11.600;2022-08-02T10:43:42;9.35;;;2.35;;
26953;SDS011;14508;50.924;11.600;2022-08-02T10:46:19;5.70;;;2.15;;
26953;SDS011;14508;50.924;11.600;2022-08-02T10:49:01;6.28;;;2.17;;
26953;SDS011;14508;50.924;11.600;2022-08-02T10:51:53;5.75;;;2.47;;
26953;SDS011;14508;50.924;11.600;2022-08-02T10:54:37;4.28;;;2.05;;
26953;SDS011;14508;50.924;11.600;2022-08-02T10:57:16;2.88;;;1.80;;
26953;SDS011;14508;50.924;11.600;2022-08-02T10:59:47;2.08;;;1.60;;
26953;SDS011;14508;50.924;11.600;2022-08-02T11:05:03;5.75;;;1.75;;
26953;SDS011;14508;50.924;11.600;2022-08-02T11:07:41;1.85;;;1.75;;
26953;SDS011;14508;50.924;11.600;2022-08-02T11:10:26;6.35;;;2.20;;
26953;SDS011;14508;50.924;11.600;2022-08-02T11:12:58;5.80;;;2.40;;
26953;SDS011;14508;50.924;11.600;2022-08-02T11:15:26;3.60;;;1.83;;
26953;SDS011;14508;50.924;11.600;2022-08-02T11:17:55;3.55;;;1.70;;
26953;SDS011;14508;50.924;11.600;2022-08-02T11:20:24;3.53;;;2.22;;
26953;SDS011;14508;50.924;11.600;2022-08-02T11:22:53;2.95;;;2.00;;
26953;SDS011;14508;50.924;11.600;2022-08-02T11:25:40;2.25;;;1.85;;
26953;SDS011;14508;50.924;11.600;2022-08-02T11:28:08;6.05;;;2.38;;
26953;SDS011;14508;50.924;11.600;2022-08-02T11:30:36;6.55;;;2.30;;
26953;SDS011;14508;50.924;11.600;2022-08-02T11:33:03;6.55;;;1.92;;
26953;SDS011;14508;50.924;11.600;2022-08-02T11:35:33;7.38;;;2.13;;
26953;SDS011;14508;50.924;11.600;2022-08-02T11:38:12;3.88;;;1.90;;
26953;SDS011;14508;50.924;11.600;2022-08-02T11:40:40;5.13;;;2.10;;
26953;SDS011;14508;50.924;11.600;2022-08-02T11:43:16;4.40;;;1.70;;
26953;SDS011;14508;50.924;11.600;2022-08-02T11:45:44;2.70;;;2.20;;
26953;SDS011;14508;50.924;11.600;2022-08-02T11:48:11;5.32;;;1.92;;
26953;SDS011;14508;50.924;11.600;2022-08-02T11:50:39;3.83;;;2.20;;
26953;SDS011;14508;50.924;11.600;2022-08-02T11:53:13;2.53;;;2.13;;
26953;SDS011;14508;50.924;11.600;2022-08-02T11:55:40;3.13;;;1.80;;
26953;SDS011;14508;50.924;11.600;2022-08-02T11:58:08;2.78;;;2.00;;
26953;SDS011;14508;50.924;11.600;2022-08-02T12:00:35;2.83;;;1.83;;
26953;SDS011;14508;50.924;11.600;2022-08-02T12:03:02;7.45;;;2.00;;
26953;SDS011;14508;50.924;11.600;2022-08-02T12:05:29;3.97;;;1.80;;
26953;SDS011;14508;50.924;11.600;2022-08-02T12:07:58;3.20;;;1.73;;
26953;SDS011;14508;50.924;11.600;2022-08-02T12:10:24;4.88;;;2.22;;
26953;SDS011;14508;50.924;11.600;2022-08-02T12:12:52;6.00;;;2.20;;
26953;SDS011;14508;50.924;11.600;2022-08-02T12:15:30;3.25;;;2.08;;
26953;SDS011;14508;50.924;11.600;2022-08-02T12:17:58;4.13;;;1.88;;
26953;SDS011;14508;50.924;11.600;2022-08-02T12:20:43;3.72;;;1.67;;
26953;SDS011;14508;50.924;11.600;2022-08-02T12:23:12;4.32;;;1.80;;
26953;SDS011;14508;50.924;11.600;2022-08-02T12:25:39;4.47;;;1.80;;
26953;SDS011;14508;50.924;11.600;2022-08-02T12:28:12;5.25;;;2.10;;
26953;SDS011;14508;50.924;11.600;2022-08-02T12:30:54;2.75;;;1.73;;
26953;SDS011;14508;50.924;11.600;2022-08-02T12:33:23;4.47;;;1.83;;
26953;SDS011;14508;50.924;11.600;2022-08-02T12:35:51;4.72;;;1.88;;
26953;SDS011;14508;50.924;11.600;2022-08-02T12:38:19;3.95;;;1.95;;
26953;SDS011;14508;50.924;11.600;2022-08-02T12:40:46;5.85;;;2.30;;
26953;SDS011;14508;50.924;11.600;2022-08-02T12:43:17;3.95;;;1.90;;
26953;SDS011;14508;50.924;11.600;2022-08-02T12:45:46;5.45;;;2.10;;
26953;SDS011;14508;50.924;11.600;2022-08-02T12:48:15;3.58;;;1.83;;
26953;SDS011;14508;50.924;11.600;2022-08-02T12:50:43;6.38;;;2.40;;
26953;SDS011;14508;50.924;11.600;2022-08-02T12:53:11;5.68;;;1.75;;
26953;SDS011;14508;50.924;11.600;2022-08-02T12:55:47;6.07;;;1.70;;
26953;SDS011;14508;50.924;11.600;2022-08-02T12:58:16;4.38;;;1.77;;
26953;SDS011;14508;50.924;11.600;2022-08-02T13:00:50;3.03;;;1.80;;
26953;SDS011;14508;50.924;11.600;2022-08-02T13:03:18;2.70;;;1.77;;
26953;SDS011;14508;50.924;11.600;2022-08-02T13:05:45;5.45;;;2.83;;
26953;SDS011;14508;50.924;11.600;2022-08-02T13:08:12;3.22;;;2.13;;
26953;SDS011;14508;50.924;11.600;2022-08-02T13:10:39;2.33;;;2.00;;
26953;SDS011;14508;50.924;11.600;2022-08-02T13:13:07;2.45;;;2.25;;
26953;SDS011;14508;50.924;11.600;2022-08-02T13:15:35;9.57;;;2.58;;
26953;SDS011;14508;50.924;11.600;2022-08-02T13:18:02;5.57;;;2.08;;
26953;SDS011;14508;50.924;11.600;2022-08-02T13:20:29;3.28;;;2.20;;
26953;SDS011;14508;50.924;11.600;2022-08-02T13:22:55;3.28;;;1.80;;
26953;SDS011;14508;50.924;11.600;2022-08-02T13:25:23;7.82;;;2.25;;
26953;SDS011;14508;50.924;11.600;2022-08-02T13:27:49;3.70;;;1.95;;
26953;SDS011;14508;50.924;11.600;2022-08-02T13:30:18;7.53;;;2.10;;
26953;SDS011;14508;50.924;11.600;2022-08-02T13:32:45;2.65;;;1.83;;
26953;SDS011;14508;50.924;11.600;2022-08-02T13:35:12;3.05;;;1.92;;
26953;SDS011;14508;50.924;11.600;2022-08-02T13:37:39;4.57;;;1.75;;
26953;SDS011;14508;50.924;11.600;2022-08-02T13:40:07;6.38;;;2.03;;
26953;SDS011;14508;50.924;11.600;2022-08-02T13:42:34;5.20;;;1.90;;
26953;SDS011;14508;50.924;11.600;2022-08-02T13:45:01;3.55;;;1.95;;
26953;SDS011;14508;50.924;11.600;2022-08-02T13:47:29;6.13;;;1.80;;
26953;SDS011;14508;50.924;11.600;2022-08-02T13:49:56;8.38;;;1.90;;
26953;SDS011;14508;50.924;11.600;2022-08-02T13:52:23;2.03;;;1.35;;
26953;SDS011;14508;50.924;11.600;2022-08-02T13:54:50;4.38;;;1.88;;
26953;SDS011;14508;50.924;11.600;2022-08-02T13:57:16;10.23;;;2.17;;
26953;SDS011;14508;50.924;11.600;2022-08-02T13:59:43;2.63;;;1.70;;
26953;SDS011;14508;50.924;11.600;2022-08-02T14:02:10;3.92;;;2.08;;
26953;SDS011;14508;50.924;11.600;2022-08-02T14:04:38;3.53;;;1.60;;
26953;SDS011;14508;50.924;11.600;2022-08-02T14:07:04;3.75;;;1.63;;
26953;SDS011;14508;50.924;11.600;2022-08-02T14:09:31;7.95;;;1.70;;
26953;SDS011;14508;50.924;11.600;2022-08-02T14:11:59;1.88;;;1.60;;
26953;SDS011;14508;50.924;11.600;2022-08-02T14:14:26;1.88;;;1.42;;
26953;SDS011;14508;50.924;11.600;2022-08-02T14:16:53;3.50;;;1.58;;
26953;SDS011;14508;50.924;11.600;2022-08-02T14:19:20;4.88;;;1.88;;
26953;SDS011;14508;50.924;11.600;2022-08-02T14:21:48;1.98;;;1.65;;
26953;SDS011;14508;50.924;11.600;2022-08-02T14:24:16;1.77;;;1.40;;
26953;SDS011;14508;50.924;11.600;2022-08-02T14:26:43;6.43;;;1.60;;
26953;SDS011;14508;50.924;11.600;2022-08-02T14:29:11;2.53;;;1.95;;
26953;SDS011;14508;50.924;11.600;2022-08-02T14:31:38;2.38;;;2.13;;
26953;SDS011;14508;50.924;11.600;2022-08-02T14:34:05;4.22;;;1.83;;
26953;SDS011;14508;50.924;11.600;2022-08-02T14:36:31;4.57;;;1.70;;
26953;SDS011;14508;50.924;11.600;2022-08-02T14:38:59;4.47;;;1.42;;
26953;SDS011;14508;50.924;11.600;2022-08-02T14:41:26;4.20;;;1.65;;
26953;SDS011;14508;50.924;11.600;2022-08-02T14:43:53;6.60;;;1.70;;
26953;SDS011;14508;50.924;11.600;2022-08-02T14:46:29;1.88;;;1.70;;